CST,Max TemperatureF,Mean TemperatureF,Min TemperatureF,Max Dew PointF,MeanDew PointF,Min DewpointF,Max Humidity, Mean Humidity, Min Humidity, Max Sea Level PressureIn, Mean Sea Level PressureIn, Min Sea Level PressureIn, Max VisibilityMiles, Mean VisibilityMiles, Min VisibilityMiles, Max Wind SpeedMPH, Mean Wind SpeedMPH, Max Gust SpeedMPH,PrecipitationIn, CloudCover, Events, WindDirDegrees
2013-1-1,71,63,55,64,55,47,90,79,66,30.18,30.04,29.91,10,9,7,17,7,23,0.09,7,Rain,341
2013-1-2,56,48,41,48,42,38,91,84,68,30.31,30.24,30.15,10,9,4,14,9,20,0.28,8,Rain,357
2013-1-3,49,46,42,40,37,34,87,73,59,30.38,30.33,30.28,10,9,2,16,9,18,0.07,8,,349
2013-1-4,47,44,42,43,40,33,92,85,59,30.43,30.36,30.32,10,6,1,17,13,23,0.05,8,Rain,333
2013-1-5,51,47,43,46,43,39,91,82,76,30.37,30.30,30.24,10,9,2,17,11,25,0.01,8,,337
2013-1-6,65,56,46,45,42,36,86,63,34,30.37,30.29,30.25,10,10,10,14,8,21,0.00,5,,351
2013-1-7,68,56,43,55,48,41,90,73,51,30.31,30.15,29.98,10,10,5,9,3,,0.00,5,,46
2013-1-8,71,66,60,65,63,55,93,85,74,29.97,29.84,29.71,10,9,4,31,9,45,0.28,5,Rain-Thunderstorm,158
2013-1-9,68,62,55,65,57,50,93,86,75,30.08,29.94,29.81,10,9,5,13,6,21,0.41,7,Rain-Thunderstorm,306
2013-1-10,73,62,51,57,54,49,93,77,50,30.10,30.06,30.01,10,9,2,9,3,,0.00,2,Thunderstorm,78
2013-1-11,80,66,53,67,60,52,94,81,55,30.06,29.91,29.79,10,6,0,22,6,26,0.00,1,Fog,159
2013-1-12,83,76,70,69,68,66,88,78,59,29.81,29.73,29.65,10,7,5,28,17,40,0.00,3,,167
2013-1-13,74,64,54,68,42,28,89,52,29,30.08,29.96,29.70,10,9,3,25,13,33,0.00,7,,341
2013-1-14,54,49,44,43,39,35,92,71,47,30.18,30.10,30.05,10,9,3,12,7,17,0.00,8,,13
2013-1-15,47,46,45,44,42,37,92,87,74,30.24,30.09,30.02,10,8,2,13,8,18,0.01,8,,353
2013-1-16,61,50,39,36,26,17,70,46,18,30.40,30.32,30.26,10,10,10,23,12,31,0.00,2,,339
2013-1-17,69,54,40,40,30,23,79,44,23,30.48,30.41,30.35,10,10,10,15,6,21,0.00,0,,314
2013-1-18,70,56,41,46,40,36,85,60,29,30.50,30.41,30.31,10,10,10,8,3,,0.00,0,,56
2013-1-19,75,60,44,50,47,41,90,62,32,30.31,30.23,30.14,10,10,7,10,3,,0.00,0,,137
2013-1-20,78,63,48,57,52,46,91,67,39,30.24,30.16,30.08,10,10,7,10,3,,0.00,1,,131
2013-1-21,76,66,54,58,54,52,91,71,47,30.22,30.14,30.08,10,10,10,12,4,22,0.00,1,,98
2013-1-22,78,64,50,55,52,44,94,68,32,30.27,30.21,30.16,10,8,0,13,3,17,0.00,2,Fog,84
2013-1-23,80,68,56,63,59,53,92,75,48,30.32,30.26,30.21,10,10,4,14,4,16,0.00,4,,145
2013-1-24,83,71,59,64,60,57,93,76,43,30.29,30.21,30.13,10,8,0,16,7,23,0.00,1,Fog,166
2013-1-25,82,72,61,64,61,58,91,73,44,30.18,30.10,30.02,10,10,7,22,10,30,0.00,0,,158
2013-1-26,82,72,61,63,59,50,93,70,33,30.13,30.07,30.01,10,10,7,21,9,30,0.00,0,,149
2013-1-27,81,74,66,67,64,62,90,80,53,30.06,30.03,29.97,10,10,7,29,11,34,0.00,6,,154
2013-1-28,84,77,70,68,66,64,85,68,49,30.02,29.94,29.88,10,10,7,25,19,37,0.00,6,,160
2013-1-29,90,81,72,68,66,61,84,69,37,29.90,29.74,29.63,10,9,7,24,19,38,0.00,3,,171
2013-1-30,73,60,46,68,23,12,85,24,11,30.26,30.05,29.67,10,10,7,28,13,38,0.00,1,,350
2013-1-31,72,58,44,44,33,25,67,41,20,30.34,30.27,30.20,10,10,10,12,2,17,0.00,0,,140